createdAt,value
2023-01-23T00:00:19.248Z,8.36
2023-01-23T00:02:48.164Z,8.47
2023-01-23T00:05:16.977Z,8.45
2023-01-23T00:07:45.696Z,8.46
2023-01-23T00:10:17.711Z,8.42
2023-01-23T00:12:49.607Z,8.40
2023-01-23T00:15:25.000Z,8.32
2023-01-23T00:18:04.411Z,8.26
2023-01-23T00:20:53.378Z,8.15
2023-01-23T00:42:17.588Z,8.42
2023-01-23T00:44:49.634Z,8.33
2023-01-23T00:47:18.300Z,8.22
2023-01-23T00:49:47.066Z,8.13
2023-01-23T00:52:15.583Z,8.09
2023-01-23T00:54:51.677Z,8.02
2023-01-23T01:13:38.471Z,8.03
2023-01-23T01:16:08.611Z,8.17
2023-01-23T01:18:37.474Z,8.38
2023-01-23T01:21:10.994Z,8.39
2023-01-23T01:23:40.473Z,8.39
2023-01-23T01:26:09.899Z,8.31
2023-01-23T01:28:40.239Z,8.24
2023-01-23T01:31:15.047Z,8.12
2023-01-23T01:33:44.792Z,8.13
2023-01-23T01:36:15.685Z,8.15
2023-01-23T01:38:44.701Z,8.18
2023-01-23T01:41:14.630Z,8.24
2023-01-23T01:43:54.530Z,8.26
2023-01-23T01:46:31.338Z,8.25
2023-01-23T01:49:12.042Z,8.26
2023-01-23T01:52:08.450Z,8.25
2023-01-23T01:54:45.842Z,8.19
2023-01-23T01:57:26.512Z,8.27
2023-01-23T02:00:13.719Z,8.29
2023-01-23T02:02:54.111Z,8.29
2023-01-23T02:05:25.899Z,8.28
2023-01-23T02:08:14.916Z,8.30
2023-01-23T02:10:44.283Z,8.32
2023-01-23T02:13:32.763Z,8.38
2023-01-23T02:16:04.148Z,8.45
2023-01-23T02:18:35.279Z,8.39
2023-01-23T02:21:07.004Z,8.40
2023-01-23T02:24:12.463Z,8.45
2023-01-23T02:26:44.247Z,8.40
2023-01-23T02:29:14.329Z,8.35
2023-01-23T02:31:48.383Z,8.41
2023-01-23T02:34:17.759Z,8.32
2023-01-23T02:36:49.936Z,8.31
2023-01-23T02:39:20.675Z,8.24
2023-01-23T02:41:51.546Z,8.24
2023-01-23T02:44:26.751Z,8.30
2023-01-23T02:47:08.715Z,8.34
2023-01-23T02:49:37.256Z,8.32
2023-01-23T02:52:06.575Z,8.28
2023-01-23T02:54:35.156Z,8.24
2023-01-23T02:57:04.362Z,8.11
2023-01-23T02:59:51.278Z,8.08
2023-01-23T03:02:20.041Z,7.98
2023-01-23T03:04:48.818Z,7.94
2023-01-23T03:07:17.421Z,8.01
2023-01-23T03:09:47.838Z,8.00
2023-01-23T03:12:17.011Z,8.02
2023-01-23T03:14:46.084Z,7.97
2023-01-23T03:17:16.962Z,7.92
2023-01-23T03:19:45.901Z,7.99
2023-01-23T03:22:14.952Z,8.03
2023-01-23T03:24:45.010Z,8.02
2023-01-23T03:27:17.839Z,8.03
2023-01-23T03:30:04.344Z,8.03
2023-01-23T03:32:32.996Z,8.03
2023-01-23T03:35:02.019Z,8.05
2023-01-23T03:37:30.590Z,8.08
2023-01-23T03:40:18.569Z,8.12
2023-01-23T03:42:47.555Z,8.06
2023-01-23T03:45:16.228Z,8.10
2023-01-23T03:47:44.739Z,8.19
2023-01-23T03:50:13.480Z,8.18
2023-01-23T03:52:42.461Z,8.21
2023-01-23T03:55:11.557Z,8.21
2023-01-23T03:57:40.124Z,8.11
2023-01-23T04:00:09.897Z,8.20
2023-01-23T04:02:38.482Z,8.10
2023-01-23T04:05:07.816Z,8.08
2023-01-23T04:07:39.235Z,8.13
2023-01-23T04:10:13.240Z,8.11
2023-01-23T04:12:43.930Z,8.05
2023-01-23T04:15:13.187Z,8.07
2023-01-23T04:17:42.658Z,8.06
2023-01-23T04:20:12.645Z,8.08
2023-01-23T04:22:41.311Z,8.06
2023-01-23T04:25:13.239Z,7.94
2023-01-23T04:27:42.172Z,7.95
2023-01-23T04:30:17.644Z,7.98
2023-01-23T04:32:46.716Z,7.88
2023-01-23T04:35:15.753Z,7.91
2023-01-23T04:37:44.481Z,7.99
2023-01-23T04:40:13.621Z,7.99
2023-01-23T04:42:42.320Z,7.99
2023-01-23T04:45:14.118Z,7.99
2023-01-23T04:47:44.308Z,8.05
2023-01-23T04:50:13.159Z,8.04
2023-01-23T04:52:41.900Z,7.97
2023-01-23T04:55:11.721Z,7.98
2023-01-23T04:57:40.528Z,7.84
2023-01-23T05:00:10.311Z,7.90
2023-01-23T05:02:39.089Z,7.84
2023-01-23T05:05:08.588Z,7.81
2023-01-23T05:07:37.282Z,7.72
2023-01-23T05:10:06.625Z,7.79
2023-01-23T05:12:35.256Z,7.80
2023-01-23T05:15:03.941Z,7.77
2023-01-23T05:17:32.580Z,7.85
2023-01-23T05:20:02.129Z,7.82
2023-01-23T05:22:31.389Z,7.81
2023-01-23T05:25:00.296Z,7.82
2023-01-23T05:27:29.067Z,7.88
2023-01-23T05:29:57.825Z,7.92
2023-01-23T05:32:26.554Z,7.87
2023-01-23T05:34:56.645Z,7.92
2023-01-23T05:38:12.401Z,7.96
2023-01-23T05:51:13.532Z,7.90
2023-01-23T05:53:44.967Z,7.96
2023-01-23T05:56:14.465Z,7.97
2023-01-23T05:58:43.152Z,8.01
2023-01-23T06:01:11.851Z,7.95
2023-01-23T06:03:40.415Z,7.99
2023-01-23T06:06:11.816Z,8.06
2023-01-23T06:08:40.530Z,8.03
2023-01-23T06:11:09.274Z,8.08
2023-01-23T06:13:38.212Z,8.06
2023-01-23T06:16:10.401Z,8.10
2023-01-23T06:18:37.724Z,8.12
2023-01-23T06:21:06.552Z,8.13
2023-01-23T06:23:35.205Z,8.09
2023-01-23T06:26:04.898Z,8.03
2023-01-23T06:28:33.565Z,8.07
2023-01-23T06:31:04.227Z,7.95
2023-01-23T06:33:33.096Z,8.05
2023-01-23T06:36:16.433Z,8.03
2023-01-23T06:38:55.006Z,7.95
2023-01-23T06:41:21.123Z,7.93
2023-01-23T06:43:53.740Z,7.83
2023-01-23T06:46:22.494Z,7.86
2023-01-23T06:48:51.185Z,7.81
2023-01-23T06:51:19.858Z,7.75
2023-01-23T06:53:48.630Z,7.72
2023-01-23T06:56:17.314Z,7.68
2023-01-23T06:58:48.951Z,7.71
2023-01-23T07:01:19.417Z,7.65
2023-01-23T07:03:50.723Z,7.61
2023-01-23T07:06:19.590Z,7.61
2023-01-23T07:08:48.350Z,7.66
2023-01-23T07:11:17.373Z,7.63
2023-01-23T07:13:48.253Z,7.57
2023-01-23T07:16:16.976Z,7.50
2023-01-23T07:18:45.600Z,7.53
2023-01-23T07:21:14.140Z,7.54
2023-01-23T07:23:42.741Z,7.43
2023-01-23T07:26:12.218Z,7.35
2023-01-23T07:28:41.304Z,7.34
2023-01-23T07:31:10.249Z,7.42
2023-01-23T07:33:38.922Z,7.45
2023-01-23T07:36:08.815Z,7.39
2023-01-23T07:38:38.552Z,7.32
2023-01-23T07:41:09.520Z,7.21
2023-01-23T07:43:40.637Z,7.20
2023-01-23T07:46:09.789Z,7.20
2023-01-23T07:48:40.891Z,7.19
2023-01-23T07:51:09.848Z,7.23
2023-01-23T07:53:38.571Z,7.21
2023-01-23T07:56:07.976Z,7.26
2023-01-23T07:58:36.711Z,7.32
2023-01-23T08:01:12.292Z,7.29
2023-01-23T08:03:41.110Z,7.30
2023-01-23T08:06:10.180Z,7.29
2023-01-23T08:08:44.521Z,7.27
2023-01-23T08:11:17.071Z,7.31
2023-01-23T08:13:47.217Z,7.11
2023-01-23T08:16:16.003Z,7.31
2023-01-23T08:18:44.819Z,7.30
2023-01-23T08:21:20.414Z,7.32
2023-01-23T08:23:51.810Z,7.35
2023-01-23T08:26:21.250Z,7.43
2023-01-23T08:28:50.444Z,7.46
2023-01-23T08:34:25.212Z,7.11
2023-01-23T08:36:54.004Z,7.56
2023-01-23T08:39:27.307Z,7.61
2023-01-23T08:42:01.690Z,7.51
2023-01-23T08:44:32.169Z,7.57
2023-01-23T08:47:03.838Z,7.51
2023-01-23T08:49:33.175Z,7.60
2023-01-23T08:52:07.821Z,7.49
2023-01-23T08:57:56.974Z,7.49
2023-01-23T09:00:28.406Z,7.55
2023-01-23T09:02:56.945Z,7.56
2023-01-23T09:05:29.450Z,7.71
2023-01-23T09:10:32.622Z,7.71
2023-01-23T09:13:04.466Z,7.90
2023-01-23T09:15:38.156Z,7.95
2023-01-23T09:18:26.377Z,7.98
2023-01-23T09:20:58.643Z,8.02
2023-01-23T09:23:29.061Z,8.20
2023-01-23T09:26:17.646Z,8.33
2023-01-23T09:28:43.914Z,8.26
2023-01-23T09:31:15.324Z,8.37
2023-01-23T09:33:44.977Z,8.31
2023-01-23T09:36:13.779Z,8.33
2023-01-23T09:38:45.610Z,8.22
2023-01-23T09:44:52.879Z,8.31
2023-01-23T09:47:39.703Z,8.43
2023-01-23T09:50:11.707Z,8.27
2023-01-23T09:52:43.477Z,8.33
2023-01-23T09:55:29.195Z,8.17
2023-01-23T09:58:01.211Z,8.27
2023-01-23T10:00:36.454Z,8.20
2023-01-23T10:03:08.062Z,7.89
2023-01-23T11:23:19.458Z,7.78
2023-01-23T11:43:09.344Z,7.26
2023-01-23T11:46:15.707Z,7.30
2023-01-23T11:49:05.468Z,7.15
2023-01-23T11:52:13.074Z,7.25
2023-01-23T11:55:04.595Z,7.27
2023-01-23T11:57:47.996Z,7.25
2023-01-23T12:00:23.141Z,7.08
2023-01-23T12:03:21.628Z,7.06
2023-01-23T12:09:15.152Z,6.97
2023-01-23T12:19:11.087Z,7.02
2023-01-23T12:22:07.834Z,7.05
2023-01-23T12:28:37.301Z,7.11
2023-01-23T12:31:51.679Z,7.26
2023-01-23T13:42:46.364Z,6.98
2023-01-23T13:48:58.451Z,6.90
2023-01-23T13:51:58.540Z,7.06
2023-01-23T13:52:04.440Z,6.96
2023-01-23T13:58:44.422Z,6.90
2023-01-23T14:10:50.674Z,7.14
2023-01-23T14:26:22.051Z,7.16
2023-01-23T14:29:00.679Z,6.98
2023-01-23T14:31:55.038Z,6.74
2023-01-23T14:34:53.966Z,6.68
2023-01-23T14:37:24.879Z,6.69
2023-01-23T14:39:55.592Z,6.68
2023-01-23T14:42:28.408Z,6.81
2023-01-23T14:45:01.702Z,6.72
2023-01-23T14:47:37.828Z,6.79
2023-01-23T14:50:12.620Z,6.78
2023-01-23T14:52:43.571Z,6.79
2023-01-23T14:55:30.389Z,6.79
2023-01-23T14:58:01.894Z,6.76
2023-01-23T15:00:31.885Z,6.67
2023-01-23T15:06:13.813Z,6.64
2023-01-23T15:08:48.704Z,6.69
2023-01-23T15:17:53.134Z,6.58
2023-01-23T15:20:37.491Z,6.52
2023-01-23T15:23:29.272Z,6.57
2023-01-23T15:26:21.368Z,6.55
2023-01-23T15:29:03.968Z,6.56
2023-01-23T15:31:41.481Z,6.52
2023-01-23T15:34:18.938Z,6.57
2023-01-23T15:37:01.490Z,6.50
2023-01-23T15:39:42.039Z,6.48
2023-01-23T15:42:16.706Z,6.47
2023-01-23T15:44:45.595Z,6.47
2023-01-23T15:47:14.644Z,6.59
2023-01-23T15:49:43.626Z,6.61
2023-01-23T15:52:27.260Z,6.58
2023-01-23T15:55:09.509Z,6.51
2023-01-23T15:57:42.389Z,6.54
2023-01-23T16:03:33.458Z,6.61
2023-01-23T16:06:32.165Z,6.58
2023-01-23T16:09:05.090Z,6.58
2023-01-23T16:11:45.866Z,6.62
2023-01-23T16:14:17.076Z,6.52
2023-01-23T16:16:46.342Z,6.65
2023-01-23T16:19:15.154Z,6.55
2023-01-23T16:21:49.909Z,6.63
2023-01-23T16:24:21.547Z,6.65
2023-01-23T16:26:52.213Z,6.64
2023-01-23T16:29:29.701Z,6.61
2023-01-23T16:38:02.393Z,6.65
2023-01-23T16:40:32.357Z,6.51
2023-01-23T16:43:03.147Z,6.47
2023-01-23T16:45:34.899Z,6.46
2023-01-23T16:48:04.130Z,6.51
2023-01-23T16:50:38.158Z,6.53
2023-01-23T16:53:26.235Z,6.46
2023-01-23T16:55:57.830Z,6.41
2023-01-23T16:58:29.502Z,6.38
2023-01-23T17:01:01.304Z,6.27
2023-01-23T17:03:35.664Z,6.26
2023-01-23T17:06:04.345Z,6.22
2023-01-23T17:08:33.118Z,6.14
2023-01-23T17:11:04.775Z,6.24
2023-01-23T17:13:37.874Z,6.25
2023-01-23T17:16:21.820Z,6.23
2023-01-23T17:18:39.294Z,5.90
2023-01-23T17:21:15.259Z,6.19
2023-01-23T17:58:17.579Z,5.95
2023-01-23T18:00:55.601Z,5.99
2023-01-23T18:03:25.082Z,5.96
2023-01-23T18:05:54.299Z,5.97
2023-01-23T18:08:26.249Z,6.06
2023-01-23T18:10:57.289Z,6.03
2023-01-23T18:13:31.788Z,6.00
2023-01-23T18:16:12.273Z,5.96
2023-01-23T18:18:46.213Z,5.93
2023-01-23T18:35:03.147Z,5.72
2023-01-23T18:37:43.762Z,5.68
2023-01-23T18:40:18.444Z,5.78
2023-01-23T18:42:56.275Z,5.84
2023-01-23T18:45:27.599Z,5.80
2023-01-23T18:47:57.316Z,5.70
2023-01-23T18:50:27.149Z,5.70
2023-01-23T18:53:16.552Z,5.80
2023-01-23T18:55:59.847Z,5.69
2023-01-23T18:59:10.324Z,5.68
2023-01-23T19:01:44.861Z,5.74
2023-01-23T19:04:16.977Z,5.60
2023-01-23T19:06:46.864Z,5.66
2023-01-23T19:09:20.473Z,5.63
2023-01-23T19:12:07.584Z,5.58
2023-01-23T19:14:49.535Z,5.60
2023-01-23T19:17:39.845Z,5.67
2023-01-23T19:20:29.197Z,5.66
2023-01-23T19:51:17.194Z,5.74
2023-01-23T19:54:22.237Z,5.72
2023-01-23T19:57:05.996Z,5.66
2023-01-23T20:02:36.435Z,5.73
2023-01-23T20:05:05.853Z,5.60
2023-01-23T20:07:34.633Z,5.73
2023-01-23T20:13:08.039Z,5.68
2023-01-23T20:15:37.857Z,5.65
2023-01-23T20:18:06.527Z,5.71
2023-01-23T20:20:35.471Z,5.62
2023-01-23T20:23:04.369Z,5.63
2023-01-23T20:25:33.016Z,5.51
2023-01-23T20:28:01.654Z,5.68
2023-01-23T20:30:32.187Z,5.69
2023-01-23T20:33:00.702Z,5.72
2023-01-23T20:35:30.482Z,5.74
2023-01-23T20:37:59.054Z,5.67
2023-01-23T20:40:30.054Z,5.60
2023-01-23T20:42:58.726Z,5.59
2023-01-23T20:45:27.434Z,5.66
2023-01-23T20:47:57.774Z,5.64
2023-01-23T20:50:26.492Z,5.65
2023-01-23T20:53:12.723Z,5.63
2023-01-23T20:55:41.323Z,5.71
2023-01-23T20:58:28.210Z,5.64
2023-01-23T21:00:57.019Z,5.64
2023-01-23T21:03:25.697Z,5.58
2023-01-23T21:05:55.427Z,5.61
2023-01-23T21:08:23.979Z,5.51
2023-01-23T21:10:54.180Z,5.44
2023-01-23T21:13:27.938Z,5.42
2023-01-23T21:16:00.614Z,5.43
2023-01-23T21:18:32.796Z,5.44
2023-01-23T21:21:08.660Z,5.40
2023-01-23T21:23:38.117Z,5.49
2023-01-23T21:26:07.059Z,5.45
2023-01-23T21:28:41.190Z,5.44
2023-01-23T21:31:12.817Z,5.44
2023-01-23T21:33:43.749Z,5.40
2023-01-23T21:36:14.228Z,5.39
2023-01-23T21:38:42.830Z,5.38
2023-01-23T21:41:11.769Z,5.37
2023-01-23T21:43:40.745Z,5.31
2023-01-23T21:46:09.735Z,5.25
2023-01-23T21:48:41.825Z,5.25
2023-01-23T21:51:16.180Z,5.26
2023-01-23T21:53:46.795Z,5.19
2023-01-23T21:56:17.318Z,5.20
2023-01-23T21:58:48.539Z,5.26
2023-01-23T22:01:32.809Z,5.26
2023-01-23T22:04:11.153Z,5.07
2023-01-23T22:06:42.798Z,5.15
2023-01-23T22:09:16.765Z,5.15
2023-01-23T22:11:46.268Z,5.17
2023-01-23T22:14:16.558Z,5.16
2023-01-23T22:16:48.897Z,5.17
2023-01-23T22:19:18.895Z,5.15
2023-01-23T22:21:47.407Z,5.13
2023-01-23T22:24:16.715Z,5.06
2023-01-23T22:26:45.396Z,5.14
2023-01-23T22:29:15.266Z,5.07
2023-01-23T22:31:44.327Z,5.19
2023-01-23T22:34:13.151Z,5.12
2023-01-23T22:36:42.104Z,5.14
2023-01-23T22:39:14.295Z,5.10
2023-01-23T22:41:44.472Z,5.09
2023-01-23T22:44:14.760Z,5.05
2023-01-23T22:46:43.560Z,5.12
2023-01-23T22:49:12.334Z,5.07
2023-01-23T22:51:41.059Z,4.99
2023-01-23T22:54:25.738Z,5.05
2023-01-23T22:56:54.367Z,5.00
2023-01-23T22:59:24.488Z,4.96
2023-01-23T23:01:53.079Z,4.89
2023-01-23T23:04:32.650Z,4.97
2023-01-23T23:06:56.772Z,4.88
2023-01-23T23:09:25.788Z,4.95
2023-01-23T23:15:07.701Z,5.03
2023-01-23T23:17:45.446Z,5.05
2023-01-23T23:20:19.078Z,5.02
2023-01-23T23:23:04.712Z,5.01
2023-01-23T23:25:27.059Z,5.08
2023-01-23T23:27:57.992Z,5.01
2023-01-23T23:30:27.381Z,5.04
2023-01-23T23:33:07.942Z,4.96
2023-01-23T23:35:40.801Z,5.03
2023-01-23T23:38:10.633Z,5.08
2023-01-23T23:40:48.000Z,5.06
2023-01-23T23:43:16.926Z,5.06
2023-01-23T23:45:55.172Z,5.07
2023-01-23T23:48:25.161Z,4.90
2023-01-23T23:50:54.437Z,4.97
2023-01-23T23:53:24.012Z,4.93
2023-01-23T23:56:01.971Z,4.91
2023-01-23T23:58:32.446Z,4.96
